sensor_id;sensor_type;location;lat;lon;timestamp;temperature;humidity
20246;DHT22;10281;54.406;18.556;2023-02-15T00:01:59;5.30;99.90
20246;DHT22;10281;54.406;18.556;2023-02-15T00:04:27;5.30;99.90
20246;DHT22;10281;54.406;18.556;2023-02-15T00:06:57;5.30;99.90
20246;DHT22;10281;54.406;18.556;2023-02-15T00:09:23;5.30;99.90
20246;DHT22;10281;54.406;18.556;2023-02-15T00:11:50;5.30;99.90
20246;DHT22;10281;54.406;18.556;2023-02-15T00:14:20;5.30;99.90
20246;DHT22;10281;54.406;18.556;2023-02-15T00:16:49;5.30;99.90
20246;DHT22;10281;54.406;18.556;2023-02-15T00:19:18;5.30;99.90
20246;DHT22;10281;54.406;18.556;2023-02-15T00:21:46;5.30;99.90
20246;DHT22;10281;54.406;18.556;2023-02-15T00:24:14;5.30;99.90
20246;DHT22;10281;54.406;18.556;2023-02-15T00:26:43;5.30;99.90
20246;DHT22;10281;54.406;18.556;2023-02-15T00:29:10;5.30;99.90
20246;DHT22;10281;54.406;18.556;2023-02-15T00:31:37;5.30;99.90
20246;DHT22;10281;54.406;18.556;2023-02-15T00:34:09;5.30;99.90
20246;DHT22;10281;54.406;18.556;2023-02-15T00:36:35;5.30;99.90
20246;DHT22;10281;54.406;18.556;2023-02-15T00:39:01;5.30;99.90
20246;DHT22;10281;54.406;18.556;2023-02-15T00:41:28;5.30;99.90
20246;DHT22;10281;54.406;18.556;2023-02-15T00:43:55;5.30;99.90
20246;DHT22;10281;54.406;18.556;2023-02-15T00:46:22;5.30;99.90
20246;DHT22;10281;54.406;18.556;2023-02-15T00:48:49;5.30;99.90
20246;DHT22;10281;54.406;18.556;2023-02-15T00:51:16;5.20;99.90
20246;DHT22;10281;54.406;18.556;2023-02-15T00:53:43;5.30;99.90
20246;DHT22;10281;54.406;18.556;2023-02-15T00:56:11;5.20;99.90
20246;DHT22;10281;54.406;18.556;2023-02-15T00:58:37;5.20;99.90
20246;DHT22;10281;54.406;18.556;2023-02-15T01:01:08;5.20;99.90
20246;DHT22;10281;54.406;18.556;2023-02-15T01:03:35;5.20;99.90
20246;DHT22;10281;54.406;18.556;2023-02-15T01:06:03;5.20;99.90
20246;DHT22;10281;54.406;18.556;2023-02-15T01:08:30;5.10;99.90
20246;DHT22;10281;54.406;18.556;2023-02-15T01:11:02;5.10;99.90
20246;DHT22;10281;54.406;18.556;2023-02-15T01:13:25;5.10;99.90
20246;DHT22;10281;54.406;18.556;2023-02-15T01:15:54;5.10;99.90
20246;DHT22;10281;54.406;18.556;2023-02-15T01:18:21;5.10;99.90
20246;DHT22;10281;54.406;18.556;2023-02-15T01:20:49;5.10;99.90
20246;DHT22;10281;54.406;18.556;2023-02-15T01:23:16;5.10;99.90
20246;DHT22;10281;54.406;18.556;2023-02-15T01:25:43;5.10;99.90
20246;DHT22;10281;54.406;18.556;2023-02-15T01:28:09;5.10;99.90
20246;DHT22;10281;54.406;18.556;2023-02-15T01:30:36;5.00;99.90
20246;DHT22;10281;54.406;18.556;2023-02-15T01:33:03;5.00;99.90
20246;DHT22;10281;54.406;18.556;2023-02-15T01:35:29;5.00;99.90
20246;DHT22;10281;54.406;18.556;2023-02-15T01:37:56;5.10;99.90
20246;DHT22;10281;54.406;18.556;2023-02-15T01:40:24;5.10;99.90
20246;DHT22;10281;54.406;18.556;2023-02-15T01:42:52;5.00;99.90
20246;DHT22;10281;54.406;18.556;2023-02-15T01:45:28;5.00;99.90
20246;DHT22;10281;54.406;18.556;2023-02-15T01:48:04;5.00;99.90
20246;DHT22;10281;54.406;18.556;2023-02-15T01:50:34;5.00;99.90
20246;DHT22;10281;54.406;18.556;2023-02-15T01:53:12;5.00;99.90
20246;DHT22;10281;54.406;18.556;2023-02-15T01:55:44;5.00;99.90
20246;DHT22;10281;54.406;18.556;2023-02-15T01:58:11;5.00;99.90
20246;DHT22;10281;54.406;18.556;2023-02-15T02:00:40;5.00;99.90
20246;DHT22;10281;54.406;18.556;2023-02-15T02:03:07;5.00;99.90
20246;DHT22;10281;54.406;18.556;2023-02-15T02:05:34;5.00;99.90
20246;DHT22;10281;54.406;18.556;2023-02-15T02:08:02;5.00;99.90
20246;DHT22;10281;54.406;18.556;2023-02-15T02:10:29;5.10;99.90
20246;DHT22;10281;54.406;18.556;2023-02-15T02:13:00;5.10;99.90
20246;DHT22;10281;54.406;18.556;2023-02-15T02:15:42;5.10;99.90
20246;DHT22;10281;54.406;18.556;2023-02-15T02:18:54;5.10;99.90
20246;DHT22;10281;54.406;18.556;2023-02-15T02:23:59;5.10;99.90
20246;DHT22;10281;54.406;18.556;2023-02-15T02:26:35;5.00;99.90
20246;DHT22;10281;54.406;18.556;2023-02-15T02:29:21;5.00;99.90
20246;DHT22;10281;54.406;18.556;2023-02-15T02:34:45;5.00;99.90
20246;DHT22;10281;54.406;18.556;2023-02-15T02:37:34;5.00;99.90
20246;DHT22;10281;54.406;18.556;2023-02-15T02:40:23;5.00;99.90
20246;DHT22;10281;54.406;18.556;2023-02-15T02:43:10;5.00;99.90
20246;DHT22;10281;54.406;18.556;2023-02-15T02:45:40;5.00;99.90
20246;DHT22;10281;54.406;18.556;2023-02-15T02:48:14;5.00;99.90
20246;DHT22;10281;54.406;18.556;2023-02-15T02:50:41;5.00;99.90
20246;DHT22;10281;54.406;18.556;2023-02-15T02:53:09;5.00;99.90
20246;DHT22;10281;54.406;18.556;2023-02-15T02:55:43;5.00;99.90
20246;DHT22;10281;54.406;18.556;2023-02-15T02:58:17;5.00;99.90
20246;DHT22;10281;54.406;18.556;2023-02-15T03:00:55;4.90;99.90
20246;DHT22;10281;54.406;18.556;2023-02-15T03:03:29;4.90;99.90
20246;DHT22;10281;54.406;18.556;2023-02-15T03:06:00;5.00;99.90
20246;DHT22;10281;54.406;18.556;2023-02-15T03:08:33;5.00;99.90
20246;DHT22;10281;54.406;18.556;2023-02-15T03:11:02;5.00;99.90
20246;DHT22;10281;54.406;18.556;2023-02-15T03:13:30;5.00;99.90
20246;DHT22;10281;54.406;18.556;2023-02-15T03:15:58;5.00;99.90
20246;DHT22;10281;54.406;18.556;2023-02-15T03:18:35;5.00;99.90
20246;DHT22;10281;54.406;18.556;2023-02-15T03:21:04;4.90;99.90
20246;DHT22;10281;54.406;18.556;2023-02-15T03:23:32;4.90;99.90
20246;DHT22;10281;54.406;18.556;2023-02-15T03:26:03;4.90;99.90
20246;DHT22;10281;54.406;18.556;2023-02-15T03:28:36;4.90;99.90
20246;DHT22;10281;54.406;18.556;2023-02-15T03:31:05;4.90;99.90
20246;DHT22;10281;54.406;18.556;2023-02-15T03:33:36;4.90;99.90
20246;DHT22;10281;54.406;18.556;2023-02-15T03:36:08;4.90;99.90
20246;DHT22;10281;54.406;18.556;2023-02-15T03:38:43;4.90;99.90
20246;DHT22;10281;54.406;18.556;2023-02-15T03:41:11;4.90;99.90
20246;DHT22;10281;54.406;18.556;2023-02-15T03:43:44;4.90;99.90
20246;DHT22;10281;54.406;18.556;2023-02-15T03:46:24;4.90;99.90
20246;DHT22;10281;54.406;18.556;2023-02-15T03:48:56;4.90;99.90
20246;DHT22;10281;54.406;18.556;2023-02-15T03:51:27;4.80;99.90
20246;DHT22;10281;54.406;18.556;2023-02-15T03:54:08;4.80;99.90
20246;DHT22;10281;54.406;18.556;2023-02-15T03:56:38;4.90;99.90
20246;DHT22;10281;54.406;18.556;2023-02-15T03:59:06;4.90;99.90
20246;DHT22;10281;54.406;18.556;2023-02-15T04:01:45;4.90;99.90
20246;DHT22;10281;54.406;18.556;2023-02-15T04:04:19;4.90;99.90
20246;DHT22;10281;54.406;18.556;2023-02-15T04:06:47;4.90;99.90
20246;DHT22;10281;54.406;18.556;2023-02-15T04:09:14;4.90;99.90
20246;DHT22;10281;54.406;18.556;2023-02-15T04:11:46;4.90;99.90
20246;DHT22;10281;54.406;18.556;2023-02-15T04:14:13;4.90;99.90
20246;DHT22;10281;54.406;18.556;2023-02-15T04:16:45;4.90;99.90
20246;DHT22;10281;54.406;18.556;2023-02-15T04:19:11;4.90;99.90
20246;DHT22;10281;54.406;18.556;2023-02-15T04:21:44;4.90;99.90
20246;DHT22;10281;54.406;18.556;2023-02-15T04:24:17;5.00;99.90
20246;DHT22;10281;54.406;18.556;2023-02-15T04:26:49;5.00;99.90
20246;DHT22;10281;54.406;18.556;2023-02-15T04:29:19;4.90;99.90
20246;DHT22;10281;54.406;18.556;2023-02-15T04:31:46;5.00;99.90
20246;DHT22;10281;54.406;18.556;2023-02-15T04:34:13;5.00;99.90
20246;DHT22;10281;54.406;18.556;2023-02-15T04:36:40;5.00;99.90
20246;DHT22;10281;54.406;18.556;2023-02-15T04:39:08;5.00;99.90
20246;DHT22;10281;54.406;18.556;2023-02-15T04:41:35;5.00;99.90
20246;DHT22;10281;54.406;18.556;2023-02-15T04:44:03;4.90;99.90
20246;DHT22;10281;54.406;18.556;2023-02-15T04:46:29;4.90;99.90
20246;DHT22;10281;54.406;18.556;2023-02-15T04:48:56;4.90;99.90
20246;DHT22;10281;54.406;18.556;2023-02-15T04:51:24;4.90;99.90
20246;DHT22;10281;54.406;18.556;2023-02-15T04:53:51;4.90;99.90
20246;DHT22;10281;54.406;18.556;2023-02-15T04:56:20;5.00;99.90
20246;DHT22;10281;54.406;18.556;2023-02-15T04:58:47;5.00;99.90
20246;DHT22;10281;54.406;18.556;2023-02-15T05:01:13;5.00;99.90
20246;DHT22;10281;54.406;18.556;2023-02-15T05:03:40;5.00;99.90
20246;DHT22;10281;54.406;18.556;2023-02-15T05:06:07;4.90;99.90
20246;DHT22;10281;54.406;18.556;2023-02-15T05:08:34;5.00;99.90
20246;DHT22;10281;54.406;18.556;2023-02-15T05:11:00;5.00;99.90
20246;DHT22;10281;54.406;18.556;2023-02-15T05:13:27;5.00;99.90
20246;DHT22;10281;54.406;18.556;2023-02-15T05:15:53;4.90;99.90
20246;DHT22;10281;54.406;18.556;2023-02-15T05:18:21;5.00;99.90
20246;DHT22;10281;54.406;18.556;2023-02-15T05:20:48;5.00;99.90
20246;DHT22;10281;54.406;18.556;2023-02-15T05:23:15;5.00;99.90
20246;DHT22;10281;54.406;18.556;2023-02-15T05:25:47;5.00;99.90
20246;DHT22;10281;54.406;18.556;2023-02-15T05:28:19;5.00;99.90
20246;DHT22;10281;54.406;18.556;2023-02-15T05:30:48;5.00;99.90
20246;DHT22;10281;54.406;18.556;2023-02-15T05:33:15;5.00;99.90
20246;DHT22;10281;54.406;18.556;2023-02-15T05:35:42;5.00;99.90
20246;DHT22;10281;54.406;18.556;2023-02-15T05:38:09;5.10;99.90
20246;DHT22;10281;54.406;18.556;2023-02-15T05:40:35;5.10;99.90
20246;DHT22;10281;54.406;18.556;2023-02-15T05:43:02;5.00;99.90
20246;DHT22;10281;54.406;18.556;2023-02-15T05:45:29;5.10;99.90
20246;DHT22;10281;54.406;18.556;2023-02-15T05:47:55;5.10;99.90
20246;DHT22;10281;54.406;18.556;2023-02-15T05:50:24;5.10;99.90
20246;DHT22;10281;54.406;18.556;2023-02-15T05:52:51;5.10;99.90
20246;DHT22;10281;54.406;18.556;2023-02-15T05:55:18;5.10;99.90
20246;DHT22;10281;54.406;18.556;2023-02-15T05:57:45;5.10;99.90
20246;DHT22;10281;54.406;18.556;2023-02-15T06:00:13;5.10;99.90
20246;DHT22;10281;54.406;18.556;2023-02-15T06:02:40;5.10;99.90
20246;DHT22;10281;54.406;18.556;2023-02-15T06:05:07;5.10;99.90
20246;DHT22;10281;54.406;18.556;2023-02-15T06:07:34;5.20;99.90
20246;DHT22;10281;54.406;18.556;2023-02-15T06:10:01;5.20;99.90
20246;DHT22;10281;54.406;18.556;2023-02-15T06:12:27;5.20;99.90
20246;DHT22;10281;54.406;18.556;2023-02-15T06:14:54;5.10;99.90
20246;DHT22;10281;54.406;18.556;2023-02-15T06:17:21;5.10;99.90
20246;DHT22;10281;54.406;18.556;2023-02-15T06:19:47;5.10;99.90
20246;DHT22;10281;54.406;18.556;2023-02-15T06:22:14;5.20;99.90
20246;DHT22;10281;54.406;18.556;2023-02-15T06:24:40;5.20;99.90
20246;DHT22;10281;54.406;18.556;2023-02-15T06:27:09;5.20;99.90
20246;DHT22;10281;54.406;18.556;2023-02-15T06:29:36;5.20;99.90
20246;DHT22;10281;54.406;18.556;2023-02-15T06:32:03;5.20;99.90
20246;DHT22;10281;54.406;18.556;2023-02-15T06:34:30;5.20;99.90
20246;DHT22;10281;54.406;18.556;2023-02-15T06:36:57;5.20;99.90
20246;DHT22;10281;54.406;18.556;2023-02-15T06:39:23;5.20;99.90
20246;DHT22;10281;54.406;18.556;2023-02-15T06:41:50;5.20;99.90
20246;DHT22;10281;54.406;18.556;2023-02-15T06:44:17;5.20;99.90
20246;DHT22;10281;54.406;18.556;2023-02-15T06:46:43;5.20;99.90
20246;DHT22;10281;54.406;18.556;2023-02-15T06:49:10;5.20;99.90
20246;DHT22;10281;54.406;18.556;2023-02-15T06:51:36;5.20;99.90
20246;DHT22;10281;54.406;18.556;2023-02-15T06:54:03;5.20;99.90
20246;DHT22;10281;54.406;18.556;2023-02-15T06:56:30;5.20;99.90
20246;DHT22;10281;54.406;18.556;2023-02-15T06:58:56;5.20;99.90
20246;DHT22;10281;54.406;18.556;2023-02-15T07:01:23;5.20;99.90
20246;DHT22;10281;54.406;18.556;2023-02-15T07:03:49;5.20;99.90
20246;DHT22;10281;54.406;18.556;2023-02-15T07:06:16;5.20;99.90
20246;DHT22;10281;54.406;18.556;2023-02-15T07:08:43;5.30;99.90
20246;DHT22;10281;54.406;18.556;2023-02-15T07:11:10;5.30;99.90
20246;DHT22;10281;54.406;18.556;2023-02-15T07:13:54;5.30;99.90
20246;DHT22;10281;54.406;18.556;2023-02-15T07:16:21;5.30;99.90
20246;DHT22;10281;54.406;18.556;2023-02-15T07:18:48;5.30;99.90
20246;DHT22;10281;54.406;18.556;2023-02-15T07:21:14;5.30;99.90
20246;DHT22;10281;54.406;18.556;2023-02-15T07:23:41;5.20;99.90
20246;DHT22;10281;54.406;18.556;2023-02-15T07:26:08;5.20;99.90
20246;DHT22;10281;54.406;18.556;2023-02-15T07:28:34;5.20;99.90
20246;DHT22;10281;54.406;18.556;2023-02-15T07:31:03;5.30;99.90
20246;DHT22;10281;54.406;18.556;2023-02-15T07:33:31;5.30;99.90
20246;DHT22;10281;54.406;18.556;2023-02-15T07:36:01;5.30;99.90
20246;DHT22;10281;54.406;18.556;2023-02-15T07:38:30;5.40;99.90
20246;DHT22;10281;54.406;18.556;2023-02-15T07:40:58;5.40;99.90
20246;DHT22;10281;54.406;18.556;2023-02-15T07:43:26;5.40;99.90
20246;DHT22;10281;54.406;18.556;2023-02-15T07:45:53;5.50;99.90
20246;DHT22;10281;54.406;18.556;2023-02-15T07:48:19;5.50;99.90
20246;DHT22;10281;54.406;18.556;2023-02-15T07:50:46;5.50;99.90
20246;DHT22;10281;54.406;18.556;2023-02-15T07:53:12;5.50;99.90
20246;DHT22;10281;54.406;18.556;2023-02-15T07:55:39;5.50;99.90
20246;DHT22;10281;54.406;18.556;2023-02-15T07:58:06;5.50;99.90
20246;DHT22;10281;54.406;18.556;2023-02-15T08:00:32;5.50;99.90
20246;DHT22;10281;54.406;18.556;2023-02-15T08:03:01;5.50;99.90
20246;DHT22;10281;54.406;18.556;2023-02-15T08:05:33;5.50;99.90
20246;DHT22;10281;54.406;18.556;2023-02-15T08:08:00;5.50;99.90
20246;DHT22;10281;54.406;18.556;2023-02-15T08:10:26;5.60;99.90
20246;DHT22;10281;54.406;18.556;2023-02-15T08:12:55;5.60;99.90
20246;DHT22;10281;54.406;18.556;2023-02-15T08:15:22;5.60;99.90
20246;DHT22;10281;54.406;18.556;2023-02-15T08:17:48;5.60;99.90
20246;DHT22;10281;54.406;18.556;2023-02-15T08:20:15;5.70;99.90
20246;DHT22;10281;54.406;18.556;2023-02-15T08:22:42;5.70;99.90
20246;DHT22;10281;54.406;18.556;2023-02-15T08:25:08;5.70;99.90
20246;DHT22;10281;54.406;18.556;2023-02-15T08:27:35;5.70;99.90
20246;DHT22;10281;54.406;18.556;2023-02-15T08:30:02;5.70;99.90
20246;DHT22;10281;54.406;18.556;2023-02-15T08:32:30;5.70;99.90
20246;DHT22;10281;54.406;18.556;2023-02-15T08:34:56;5.70;99.90
20246;DHT22;10281;54.406;18.556;2023-02-15T08:37:23;5.70;99.90
20246;DHT22;10281;54.406;18.556;2023-02-15T08:39:51;5.70;99.90
20246;DHT22;10281;54.406;18.556;2023-02-15T08:42:18;5.70;99.90
20246;DHT22;10281;54.406;18.556;2023-02-15T08:44:46;5.80;99.90
20246;DHT22;10281;54.406;18.556;2023-02-15T08:47:15;5.80;99.90
20246;DHT22;10281;54.406;18.556;2023-02-15T08:49:42;5.80;99.90
20246;DHT22;10281;54.406;18.556;2023-02-15T08:52:08;5.80;99.90
20246;DHT22;10281;54.406;18.556;2023-02-15T08:54:35;5.70;99.90
20246;DHT22;10281;54.406;18.556;2023-02-15T08:57:01;5.70;99.90
20246;DHT22;10281;54.406;18.556;2023-02-15T08:59:28;5.70;99.90
20246;DHT22;10281;54.406;18.556;2023-02-15T09:01:56;5.80;99.90
20246;DHT22;10281;54.406;18.556;2023-02-15T09:04:22;5.70;99.90
20246;DHT22;10281;54.406;18.556;2023-02-15T09:06:50;5.70;99.90
20246;DHT22;10281;54.406;18.556;2023-02-15T09:09:17;5.70;99.90
20246;DHT22;10281;54.406;18.556;2023-02-15T09:11:47;5.70;99.90
20246;DHT22;10281;54.406;18.556;2023-02-15T09:14:17;5.70;99.90
20246;DHT22;10281;54.406;18.556;2023-02-15T09:16:47;5.60;99.90
20246;DHT22;10281;54.406;18.556;2023-02-15T09:19:16;5.70;99.90
20246;DHT22;10281;54.406;18.556;2023-02-15T09:21:43;5.70;99.90
20246;DHT22;10281;54.406;18.556;2023-02-15T09:24:12;5.60;99.90
20246;DHT22;10281;54.406;18.556;2023-02-15T09:26:41;5.70;99.90
20246;DHT22;10281;54.406;18.556;2023-02-15T09:29:09;5.70;99.90
20246;DHT22;10281;54.406;18.556;2023-02-15T09:31:41;5.70;99.90
20246;DHT22;10281;54.406;18.556;2023-02-15T09:34:13;5.70;99.90
20246;DHT22;10281;54.406;18.556;2023-02-15T09:36:41;5.70;99.90
20246;DHT22;10281;54.406;18.556;2023-02-15T09:39:14;5.70;99.90
20246;DHT22;10281;54.406;18.556;2023-02-15T09:50:16;5.80;99.90
20246;DHT22;10281;54.406;18.556;2023-02-15T09:55:36;5.70;99.90
20246;DHT22;10281;54.406;18.556;2023-02-15T10:00:50;5.70;99.90
20246;DHT22;10281;54.406;18.556;2023-02-15T10:03:25;5.70;99.90
20246;DHT22;10281;54.406;18.556;2023-02-15T10:06:12;5.70;99.90
20246;DHT22;10281;54.406;18.556;2023-02-15T10:11:17;5.70;99.90
20246;DHT22;10281;54.406;18.556;2023-02-15T10:14:03;5.70;99.90
20246;DHT22;10281;54.406;18.556;2023-02-15T10:16:43;5.70;99.90
20246;DHT22;10281;54.406;18.556;2023-02-15T10:19:20;5.70;99.90
20246;DHT22;10281;54.406;18.556;2023-02-15T10:22:09;5.80;99.90
20246;DHT22;10281;54.406;18.556;2023-02-15T10:24:58;5.80;99.90
20246;DHT22;10281;54.406;18.556;2023-02-15T10:27:23;5.80;99.90
20246;DHT22;10281;54.406;18.556;2023-02-15T10:30:06;5.90;99.90
20246;DHT22;10281;54.406;18.556;2023-02-15T10:32:34;5.90;99.90
20246;DHT22;10281;54.406;18.556;2023-02-15T10:38:07;5.90;99.90
20246;DHT22;10281;54.406;18.556;2023-02-15T10:40:44;5.80;99.90
20246;DHT22;10281;54.406;18.556;2023-02-15T10:43:14;5.70;99.90
20246;DHT22;10281;54.406;18.556;2023-02-15T10:51:00;5.80;99.90
20246;DHT22;10281;54.406;18.556;2023-02-15T10:53:38;5.90;99.90
20246;DHT22;10281;54.406;18.556;2023-02-15T10:56:24;5.90;99.90
20246;DHT22;10281;54.406;18.556;2023-02-15T10:59:16;6.00;99.90
20246;DHT22;10281;54.406;18.556;2023-02-15T11:01:50;6.10;99.90
20246;DHT22;10281;54.406;18.556;2023-02-15T11:04:55;6.10;99.90
20246;DHT22;10281;54.406;18.556;2023-02-15T11:07:12;6.10;99.90
20246;DHT22;10281;54.406;18.556;2023-02-15T11:09:41;6.20;99.90
20246;DHT22;10281;54.406;18.556;2023-02-15T11:12:14;6.20;99.90
20246;DHT22;10281;54.406;18.556;2023-02-15T11:14:50;6.20;99.90
20246;DHT22;10281;54.406;18.556;2023-02-15T11:17:22;6.30;99.90
20246;DHT22;10281;54.406;18.556;2023-02-15T11:20:02;6.40;99.90
20246;DHT22;10281;54.406;18.556;2023-02-15T11:22:32;6.40;99.90
20246;DHT22;10281;54.406;18.556;2023-02-15T11:25:01;6.30;99.90
20246;DHT22;10281;54.406;18.556;2023-02-15T11:27:31;6.30;99.90
20246;DHT22;10281;54.406;18.556;2023-02-15T11:30:05;6.30;99.90
20246;DHT22;10281;54.406;18.556;2023-02-15T11:32:39;6.20;99.90
20246;DHT22;10281;54.406;18.556;2023-02-15T11:35:28;6.20;99.90
20246;DHT22;10281;54.406;18.556;2023-02-15T11:38:02;6.20;99.90
20246;DHT22;10281;54.406;18.556;2023-02-15T11:40:36;6.30;99.90
20246;DHT22;10281;54.406;18.556;2023-02-15T11:43:06;6.40;99.90
20246;DHT22;10281;54.406;18.556;2023-02-15T11:45:34;6.30;99.90
20246;DHT22;10281;54.406;18.556;2023-02-15T11:48:08;6.30;99.90
20246;DHT22;10281;54.406;18.556;2023-02-15T11:50:32;6.40;99.90
20246;DHT22;10281;54.406;18.556;2023-02-15T11:53:02;6.30;99.90
20246;DHT22;10281;54.406;18.556;2023-02-15T11:55:30;6.30;99.90
20246;DHT22;10281;54.406;18.556;2023-02-15T11:58:31;6.40;99.90
20246;DHT22;10281;54.406;18.556;2023-02-15T12:01:09;6.40;99.90
20246;DHT22;10281;54.406;18.556;2023-02-15T12:03:47;6.50;99.90
20246;DHT22;10281;54.406;18.556;2023-02-15T12:06:34;6.60;99.90
20246;DHT22;10281;54.406;18.556;2023-02-15T12:09:07;6.50;99.90
20246;DHT22;10281;54.406;18.556;2023-02-15T12:11:37;6.50;99.90
20246;DHT22;10281;54.406;18.556;2023-02-15T12:14:07;6.60;99.90
20246;DHT22;10281;54.406;18.556;2023-02-15T12:16:42;6.70;99.90
20246;DHT22;10281;54.406;18.556;2023-02-15T12:19:29;6.80;99.90
20246;DHT22;10281;54.406;18.556;2023-02-15T12:21:58;6.80;99.90
20246;DHT22;10281;54.406;18.556;2023-02-15T12:24:30;6.80;99.90
20246;DHT22;10281;54.406;18.556;2023-02-15T12:27:02;6.70;99.90
20246;DHT22;10281;54.406;18.556;2023-02-15T12:29:35;6.70;99.90
20246;DHT22;10281;54.406;18.556;2023-02-15T12:32:04;6.80;99.90
20246;DHT22;10281;54.406;18.556;2023-02-15T12:34:36;6.80;99.90
20246;DHT22;10281;54.406;18.556;2023-02-15T12:37:07;6.80;99.90
20246;DHT22;10281;54.406;18.556;2023-02-15T12:39:33;6.80;99.90
20246;DHT22;10281;54.406;18.556;2023-02-15T12:42:04;6.80;99.90
20246;DHT22;10281;54.406;18.556;2023-02-15T12:44:34;6.80;99.90
20246;DHT22;10281;54.406;18.556;2023-02-15T12:47:06;6.80;99.90
20246;DHT22;10281;54.406;18.556;2023-02-15T12:49:37;6.80;99.90
20246;DHT22;10281;54.406;18.556;2023-02-15T12:52:37;7.00;99.90
20246;DHT22;10281;54.406;18.556;2023-02-15T12:54:50;7.00;99.90
20246;DHT22;10281;54.406;18.556;2023-02-15T13:00:05;7.00;99.90
20246;DHT22;10281;54.406;18.556;2023-02-15T13:02:48;7.10;99.90
20246;DHT22;10281;54.406;18.556;2023-02-15T13:05:23;7.20;99.90
20246;DHT22;10281;54.406;18.556;2023-02-15T13:07:55;7.20;99.90
20246;DHT22;10281;54.406;18.556;2023-02-15T13:10:28;7.20;99.90
20246;DHT22;10281;54.406;18.556;2023-02-15T13:12:57;7.20;99.90
20246;DHT22;10281;54.406;18.556;2023-02-15T13:15:30;7.30;99.90
20246;DHT22;10281;54.406;18.556;2023-02-15T13:17:58;7.30;99.90
20246;DHT22;10281;54.406;18.556;2023-02-15T13:20:27;7.40;99.90
20246;DHT22;10281;54.406;18.556;2023-02-15T13:22:59;7.40;99.90
20246;DHT22;10281;54.406;18.556;2023-02-15T13:25:29;7.40;99.90
20246;DHT22;10281;54.406;18.556;2023-02-15T13:28:01;7.40;99.90
20246;DHT22;10281;54.406;18.556;2023-02-15T13:30:32;7.40;99.90
20246;DHT22;10281;54.406;18.556;2023-02-15T13:33:06;7.40;99.90
20246;DHT22;10281;54.406;18.556;2023-02-15T13:35:37;7.40;99.90
20246;DHT22;10281;54.406;18.556;2023-02-15T13:38:18;7.40;99.90
20246;DHT22;10281;54.406;18.556;2023-02-15T13:40:48;7.40;99.90
20246;DHT22;10281;54.406;18.556;2023-02-15T13:43:45;7.40;99.90
20246;DHT22;10281;54.406;18.556;2023-02-15T13:46:28;7.40;99.90
20246;DHT22;10281;54.406;18.556;2023-02-15T13:52:01;7.50;99.90
20246;DHT22;10281;54.406;18.556;2023-02-15T14:02:48;7.40;99.90
20246;DHT22;10281;54.406;18.556;2023-02-15T14:10:46;7.20;99.90
20246;DHT22;10281;54.406;18.556;2023-02-15T14:13:38;7.20;99.90
20246;DHT22;10281;54.406;18.556;2023-02-15T14:16:45;7.20;99.90
20246;DHT22;10281;54.406;18.556;2023-02-15T14:19:09;7.20;99.90
20246;DHT22;10281;54.406;18.556;2023-02-15T14:21:36;7.20;99.90
20246;DHT22;10281;54.406;18.556;2023-02-15T14:24:21;7.10;99.90
20246;DHT22;10281;54.406;18.556;2023-02-15T14:26:56;7.10;99.90
20246;DHT22;10281;54.406;18.556;2023-02-15T14:29:41;7.10;99.90
20246;DHT22;10281;54.406;18.556;2023-02-15T14:32:14;7.10;99.90
20246;DHT22;10281;54.406;18.556;2023-02-15T14:34:48;7.00;99.90
20246;DHT22;10281;54.406;18.556;2023-02-15T14:37:19;7.00;99.90
20246;DHT22;10281;54.406;18.556;2023-02-15T14:39:57;7.10;99.90
20246;DHT22;10281;54.406;18.556;2023-02-15T14:42:42;7.00;99.90
20246;DHT22;10281;54.406;18.556;2023-02-15T14:45:18;7.00;99.90
20246;DHT22;10281;54.406;18.556;2023-02-15T14:47:50;7.00;99.90
20246;DHT22;10281;54.406;18.556;2023-02-15T14:50:40;6.90;99.90
20246;DHT22;10281;54.406;18.556;2023-02-15T14:53:16;6.90;99.90
20246;DHT22;10281;54.406;18.556;2023-02-15T14:55:43;7.00;99.90
20246;DHT22;10281;54.406;18.556;2023-02-15T14:58:12;6.90;99.90
20246;DHT22;10281;54.406;18.556;2023-02-15T15:00:40;6.90;99.90
20246;DHT22;10281;54.406;18.556;2023-02-15T15:03:23;6.90;99.90
20246;DHT22;10281;54.406;18.556;2023-02-15T15:05:53;6.80;99.90
20246;DHT22;10281;54.406;18.556;2023-02-15T15:08:26;6.80;99.90
20246;DHT22;10281;54.406;18.556;2023-02-15T15:10:52;6.70;99.90
20246;DHT22;10281;54.406;18.556;2023-02-15T15:13:37;6.70;99.90
20246;DHT22;10281;54.406;18.556;2023-02-15T15:16:25;6.70;99.90
20246;DHT22;10281;54.406;18.556;2023-02-15T15:18:52;6.60;99.90
20246;DHT22;10281;54.406;18.556;2023-02-15T15:23:58;6.50;99.90
20246;DHT22;10281;54.406;18.556;2023-02-15T15:26:29;6.40;99.90
20246;DHT22;10281;54.406;18.556;2023-02-15T15:28:59;6.40;99.90
20246;DHT22;10281;54.406;18.556;2023-02-15T15:31:44;6.40;99.90
20246;DHT22;10281;54.406;18.556;2023-02-15T15:34:26;6.30;99.90
20246;DHT22;10281;54.406;18.556;2023-02-15T15:37:00;6.30;99.90
20246;DHT22;10281;54.406;18.556;2023-02-15T15:39:37;6.20;99.90
20246;DHT22;10281;54.406;18.556;2023-02-15T15:42:07;6.10;99.90
20246;DHT22;10281;54.406;18.556;2023-02-15T15:44:44;6.10;99.90
20246;DHT22;10281;54.406;18.556;2023-02-15T15:47:26;6.10;99.90
20246;DHT22;10281;54.406;18.556;2023-02-15T15:49:54;6.00;99.90
20246;DHT22;10281;54.406;18.556;2023-02-15T15:52:22;5.90;99.90
20246;DHT22;10281;54.406;18.556;2023-02-15T15:54:55;5.80;99.90
20246;DHT22;10281;54.406;18.556;2023-02-15T15:57:27;5.80;99.90
20246;DHT22;10281;54.406;18.556;2023-02-15T15:59:54;5.70;99.90
20246;DHT22;10281;54.406;18.556;2023-02-15T16:02:21;5.70;99.90
20246;DHT22;10281;54.406;18.556;2023-02-15T16:04:49;5.60;99.90
20246;DHT22;10281;54.406;18.556;2023-02-15T16:07:25;5.50;99.90
20246;DHT22;10281;54.406;18.556;2023-02-15T16:09:58;5.40;99.90
20246;DHT22;10281;54.406;18.556;2023-02-15T16:12:27;5.40;99.90
20246;DHT22;10281;54.406;18.556;2023-02-15T16:14:55;5.30;99.90
20246;DHT22;10281;54.406;18.556;2023-02-15T16:17:24;5.30;99.90
20246;DHT22;10281;54.406;18.556;2023-02-15T16:19:58;5.20;99.90
20246;DHT22;10281;54.406;18.556;2023-02-15T16:22:25;5.20;99.90
20246;DHT22;10281;54.406;18.556;2023-02-15T16:25:29;5.10;99.90
20246;DHT22;10281;54.406;18.556;2023-02-15T16:27:56;5.10;99.90
20246;DHT22;10281;54.406;18.556;2023-02-15T16:30:28;5.00;99.90
20246;DHT22;10281;54.406;18.556;2023-02-15T16:33:05;5.00;99.90
20246;DHT22;10281;54.406;18.556;2023-02-15T16:35:33;4.90;99.90
20246;DHT22;10281;54.406;18.556;2023-02-15T16:38:02;4.90;99.90
20246;DHT22;10281;54.406;18.556;2023-02-15T16:40:38;4.80;99.90
20246;DHT22;10281;54.406;18.556;2023-02-15T16:43:06;4.70;99.90
20246;DHT22;10281;54.406;18.556;2023-02-15T16:45:34;4.70;99.90
20246;DHT22;10281;54.406;18.556;2023-02-15T16:48:06;4.60;99.90